createdAt,value
2023-04-02T00:01:02.095Z,91.79
2023-04-02T00:03:45.799Z,91.70
2023-04-02T00:06:33.758Z,91.69
2023-04-02T00:09:21.438Z,91.62
2023-04-02T00:11:56.924Z,91.77
2023-04-02T00:14:30.916Z,91.97
2023-04-02T00:16:58.763Z,91.97
2023-04-02T00:19:48.116Z,91.81
2023-04-02T00:22:20.472Z,91.73
2023-04-02T00:24:50.317Z,91.81
2023-04-02T00:27:17.404Z,91.68
2023-04-02T00:29:48.869Z,91.73
2023-04-02T00:32:30.354Z,91.79
2023-04-02T00:34:57.896Z,91.90
2023-04-02T00:37:27.787Z,91.82
2023-04-02T00:40:07.613Z,91.48
2023-04-02T00:42:35.566Z,91.23
2023-04-02T00:45:04.426Z,91.07
2023-04-02T00:47:38.341Z,90.88
2023-04-02T00:50:06.819Z,90.82
2023-04-02T00:52:33.963Z,90.57
2023-04-02T00:55:06.685Z,90.07
2023-04-02T00:57:33.960Z,89.94
2023-04-02T01:00:16.115Z,89.69
2023-04-02T01:02:44.380Z,89.68
2023-04-02T01:05:15.542Z,89.78
2023-04-02T01:08:06.925Z,89.68
2023-04-02T01:10:50.473Z,89.92
2023-04-02T01:13:24.580Z,90.21
2023-04-02T01:16:14.005Z,90.23
2023-04-02T01:19:13.917Z,90.35
2023-04-02T01:21:53.047Z,90.23
2023-04-02T01:24:20.569Z,90.15
2023-04-02T01:26:53.338Z,90.40
2023-04-02T01:29:33.353Z,90.34
2023-04-02T01:32:11.900Z,90.28
2023-04-02T01:34:40.492Z,90.10
2023-04-02T01:37:22.889Z,89.95
2023-04-02T01:40:15.232Z,89.76
2023-04-02T01:42:48.966Z,89.69
2023-04-02T01:45:19.659Z,89.64
2023-04-02T01:47:47.048Z,89.50
2023-04-02T01:50:21.178Z,89.13
2023-04-02T01:52:54.238Z,88.70
2023-04-02T01:55:39.602Z,88.28
2023-04-02T01:58:11.633Z,87.69
2023-04-02T02:01:01.098Z,87.47
2023-04-02T02:03:29.084Z,87.02
2023-04-02T02:05:57.175Z,86.89
2023-04-02T02:08:38.049Z,86.75
2023-04-02T02:11:07.451Z,86.65
2023-04-02T02:13:34.624Z,86.68
2023-04-02T02:16:06.857Z,86.46
2023-04-02T02:18:34.546Z,86.18
2023-04-02T02:21:01.518Z,86.01
2023-04-02T02:23:29.922Z,85.69
2023-04-02T02:25:57.538Z,85.24
2023-04-02T02:28:32.016Z,85.01
2023-04-02T02:31:04.883Z,84.60
2023-04-02T02:33:40.060Z,84.43
2023-04-02T02:36:23.268Z,84.14
2023-04-02T02:38:58.534Z,83.95
2023-04-02T02:41:41.563Z,83.53
2023-04-02T02:44:09.032Z,83.49
2023-04-02T02:46:45.782Z,83.48
2023-04-02T02:49:15.647Z,83.25
2023-04-02T02:51:55.463Z,83.06
2023-04-02T02:54:27.412Z,82.73
2023-04-02T02:57:02.486Z,82.53
2023-04-02T03:02:52.985Z,82.16
2023-04-02T03:05:22.266Z,82.05
2023-04-02T03:07:51.781Z,81.83
2023-04-02T03:10:44.100Z,81.81
2023-04-02T03:21:16.525Z,81.32
2023-04-02T03:23:46.458Z,81.15
2023-04-02T03:26:28.284Z,80.95
2023-04-02T03:29:18.901Z,80.72
2023-04-02T03:31:49.158Z,80.51
2023-04-02T03:34:25.762Z,80.33
2023-04-02T03:37:04.956Z,80.21
2023-04-02T03:39:37.735Z,80.01
2023-04-02T03:42:16.364Z,79.73
2023-04-02T03:44:44.864Z,79.28
2023-04-02T03:47:39.350Z,79.14
2023-04-02T03:50:12.314Z,79.20
2023-04-02T03:52:41.317Z,79.05
2023-04-02T03:55:21.596Z,79.01
2023-04-02T03:58:18.439Z,79.18
2023-04-02T04:00:54.116Z,79.00
2023-04-02T04:03:50.449Z,78.85
2023-04-02T04:06:29.181Z,78.93
2023-04-02T04:09:07.744Z,79.12
2023-04-02T04:11:36.796Z,79.28
2023-04-02T04:14:12.685Z,79.13
2023-04-02T04:16:43.379Z,79.03
2023-04-02T04:19:19.605Z,78.94
2023-04-02T04:21:49.397Z,78.95
2023-04-02T04:24:24.681Z,78.82
2023-04-02T04:27:04.218Z,78.61
2023-04-02T04:29:51.899Z,78.57
2023-04-02T04:32:32.271Z,78.39
2023-04-02T04:35:08.134Z,78.32
2023-04-02T04:37:38.648Z,78.40
2023-04-02T04:40:19.087Z,78.25
2023-04-02T04:42:48.508Z,78.03
2023-04-02T04:45:34.570Z,78.07
2023-04-02T04:48:15.503Z,77.78
2023-04-02T04:51:01.914Z,77.76
2023-04-02T04:53:30.111Z,77.43
2023-04-02T04:56:18.083Z,77.39
2023-04-02T04:58:50.252Z,77.57
2023-04-02T05:01:55.541Z,77.44
2023-04-02T05:04:31.466Z,77.39
2023-04-02T05:07:07.678Z,77.08
2023-04-02T05:11:35.226Z,77.16
2023-04-02T05:14:26.875Z,77.33
2023-04-02T05:17:01.259Z,77.41
2023-04-02T05:19:35.031Z,77.47
2023-04-02T05:22:02.729Z,77.34
2023-04-02T05:25:09.077Z,77.14
2023-04-02T05:27:45.226Z,76.79
2023-04-02T05:30:24.783Z,76.54
2023-04-02T05:32:59.141Z,76.25
2023-04-02T05:35:38.274Z,76.35
2023-04-02T05:38:06.897Z,76.18
2023-04-02T05:40:42.756Z,75.76
2023-04-02T05:43:11.237Z,75.33
2023-04-02T05:45:41.828Z,75.04
2023-04-02T05:48:17.966Z,74.49
2023-04-02T05:50:48.090Z,74.30
2023-04-02T05:53:30.429Z,74.05
2023-04-02T05:56:22.368Z,73.85
2023-04-02T05:58:53.108Z,73.98
2023-04-02T06:01:47.529Z,74.06
2023-04-02T06:04:41.486Z,73.84
2023-04-02T06:07:12.728Z,73.71
2023-04-02T06:09:54.341Z,73.42
2023-04-02T06:12:32.093Z,73.43
2023-04-02T06:15:01.011Z,73.17
2023-04-02T06:17:31.516Z,73.04
2023-04-02T06:19:59.859Z,72.52
2023-04-02T06:22:39.683Z,72.11
2023-04-02T06:25:47.265Z,71.92
2023-04-02T06:28:25.269Z,71.14
2023-04-02T06:31:00.269Z,70.20
2023-04-02T06:33:35.017Z,70.14
2023-04-02T06:36:02.504Z,69.64
2023-04-02T06:38:32.501Z,69.23
2023-04-02T06:41:01.597Z,68.72
2023-04-02T06:43:58.161Z,67.63
2023-04-02T06:46:53.109Z,66.79
2023-04-02T06:49:26.333Z,66.14
2023-04-02T06:51:58.188Z,66.25
2023-04-02T06:54:26.178Z,64.35
2023-04-02T06:56:58.157Z,62.94
2023-04-02T06:59:34.897Z,62.21
2023-04-02T07:02:29.974Z,60.74
2023-04-02T07:05:01.920Z,59.26
2023-04-02T07:07:31.637Z,58.81
2023-04-02T07:10:01.785Z,58.54
2023-04-02T07:12:30.284Z,57.95
2023-04-02T07:14:58.851Z,56.68
2023-04-02T07:17:26.446Z,56.15
2023-04-02T07:19:54.002Z,55.47
2023-04-02T07:22:22.291Z,55.45
2023-04-02T07:24:53.686Z,55.57
2023-04-02T07:27:21.861Z,55.40
2023-04-02T07:29:49.022Z,55.35
2023-04-02T07:32:16.312Z,55.23
2023-04-02T07:34:43.458Z,54.73
2023-04-02T07:37:14.840Z,54.17
2023-04-02T07:39:43.045Z,53.25
2023-04-02T07:42:10.301Z,52.95
2023-04-02T07:44:37.949Z,52.86
2023-04-02T07:47:05.493Z,53.31
2023-04-02T07:49:35.664Z,53.40
2023-04-02T07:52:02.929Z,52.92
2023-04-02T07:54:30.646Z,53.35
2023-04-02T07:56:57.967Z,53.68
2023-04-02T07:59:25.186Z,53.20
2023-04-02T08:01:52.994Z,52.83
2023-04-02T08:04:22.123Z,52.83
2023-04-02T08:06:50.766Z,52.86
2023-04-02T08:09:18.361Z,52.62
2023-04-02T08:11:48.583Z,52.17
2023-04-02T08:14:16.554Z,52.13
2023-04-02T08:16:54.378Z,52.31
2023-04-02T08:19:25.107Z,51.97
2023-04-02T08:21:53.984Z,51.82
2023-04-02T08:24:21.617Z,52.10
2023-04-02T08:26:49.612Z,52.22
2023-04-02T08:29:16.684Z,52.13
2023-04-02T08:31:43.734Z,51.89
2023-04-02T08:34:11.151Z,51.06
2023-04-02T08:36:39.408Z,51.08
2023-04-02T08:39:11.166Z,50.91
2023-04-02T08:41:44.950Z,50.70
2023-04-02T08:44:16.397Z,50.54
2023-04-02T08:46:47.389Z,51.09
2023-04-02T08:49:17.301Z,51.99
2023-04-02T08:51:45.555Z,52.55
2023-04-02T08:54:38.185Z,53.02
2023-04-02T08:57:32.249Z,53.53
2023-04-02T09:00:26.755Z,53.95
2023-04-02T09:03:09.944Z,54.05
2023-04-02T09:05:39.522Z,54.29
2023-04-02T09:08:20.037Z,54.34
2023-04-02T09:11:17.562Z,54.25
2023-04-02T09:13:56.943Z,53.77
2023-04-02T09:16:38.061Z,53.72
2023-04-02T09:19:22.836Z,53.38
2023-04-02T09:21:57.355Z,52.81
2023-04-02T09:24:24.922Z,52.57
2023-04-02T09:26:59.191Z,51.95
2023-04-02T09:29:30.778Z,51.77
2023-04-02T09:32:16.365Z,51.08
2023-04-02T09:34:44.028Z,49.76
2023-04-02T09:37:25.687Z,48.06
2023-04-02T09:39:54.251Z,47.25
2023-04-02T09:42:34.276Z,45.90
2023-04-02T09:45:13.029Z,44.96
2023-04-02T09:47:42.467Z,44.06
2023-04-02T09:50:22.043Z,43.14
2023-04-02T09:52:50.131Z,42.91
2023-04-02T09:55:20.202Z,42.28
2023-04-02T09:57:48.894Z,41.06
2023-04-02T10:00:30.624Z,40.35
2023-04-02T10:03:25.846Z,40.54
2023-04-02T10:06:13.308Z,39.37
2023-04-02T10:08:43.946Z,38.13
2023-04-02T10:11:46.349Z,38.11
2023-04-02T10:14:19.444Z,39.26
2023-04-02T10:16:58.456Z,39.95
2023-04-02T10:19:28.347Z,39.47
2023-04-02T10:22:04.167Z,39.53
2023-04-02T10:24:31.558Z,39.53
2023-04-02T10:27:38.243Z,38.83
2023-04-02T10:30:10.499Z,39.39
2023-04-02T10:32:43.312Z,39.66
2023-04-02T10:35:36.343Z,39.82
2023-04-02T10:38:16.118Z,40.14
2023-04-02T10:40:47.753Z,40.19
2023-04-02T10:43:44.132Z,40.57
2023-04-02T10:46:23.639Z,39.72
2023-04-02T10:56:03.002Z,39.19
2023-04-02T10:58:31.179Z,38.80
2023-04-02T11:01:00.795Z,38.31
2023-04-02T11:03:41.302Z,38.59
2023-04-02T11:06:41.908Z,38.51
2023-04-02T11:09:20.809Z,39.16
2023-04-02T11:11:48.897Z,38.85
2023-04-02T11:14:20.232Z,38.81
2023-04-02T11:16:51.300Z,39.19
2023-04-02T11:19:18.022Z,39.00
2023-04-02T11:22:23.716Z,39.13
2023-04-02T11:24:50.626Z,38.35
2023-04-02T11:33:39.828Z,38.29
2023-04-02T11:36:47.829Z,38.44
2023-04-02T11:39:17.730Z,38.29
2023-04-02T11:42:04.564Z,37.71
2023-04-02T11:44:32.656Z,37.87
2023-04-02T11:47:20.772Z,37.90
2023-04-02T11:49:55.964Z,37.47
2023-04-02T11:52:27.353Z,37.03
2023-04-02T11:54:59.818Z,36.88
2023-04-02T11:57:47.354Z,36.95
2023-04-02T12:00:23.449Z,37.29
2023-04-02T12:02:53.960Z,37.35
2023-04-02T12:05:38.029Z,36.58
2023-04-02T12:08:24.071Z,37.00
2023-04-02T12:10:54.706Z,37.21
2023-04-02T12:13:42.263Z,35.45
2023-04-02T12:16:13.193Z,36.29
2023-04-02T12:18:48.505Z,36.58
2023-04-02T12:21:19.445Z,35.61
2023-04-02T12:23:47.689Z,34.61
2023-04-02T12:26:38.658Z,34.34
2023-04-02T12:29:16.291Z,34.67
2023-04-02T12:31:48.045Z,34.87
2023-04-02T12:34:16.536Z,34.89
2023-04-02T12:36:54.162Z,35.27
2023-04-02T12:39:21.664Z,35.30
2023-04-02T12:41:49.015Z,35.53
2023-04-02T12:44:18.756Z,35.79
2023-04-02T12:46:46.205Z,35.92
2023-04-02T12:49:37.087Z,35.87
2023-04-02T12:52:06.116Z,35.73
2023-04-02T12:54:36.973Z,35.81
2023-04-02T12:57:23.039Z,35.92
2023-04-02T12:59:50.369Z,36.27
2023-04-02T13:02:22.060Z,36.71
2023-04-02T13:04:50.654Z,36.51
2023-04-02T13:07:19.081Z,36.82
2023-04-02T13:09:50.715Z,36.68
2023-04-02T13:12:32.833Z,36.53
2023-04-02T13:15:01.155Z,36.68
2023-04-02T13:17:44.307Z,36.54
2023-04-02T13:20:31.379Z,36.53
2023-04-02T13:23:30.715Z,36.39
2023-04-02T13:25:59.390Z,36.08
2023-04-02T13:28:26.519Z,35.24
2023-04-02T13:30:53.782Z,35.48
2023-04-02T13:33:21.193Z,35.51
2023-04-02T13:35:48.193Z,34.99
2023-04-02T13:38:16.009Z,34.55
2023-04-02T13:40:43.110Z,33.32
2023-04-02T13:43:17.166Z,32.47
2023-04-02T13:45:44.203Z,30.23
2023-04-02T13:48:17.615Z,29.81
2023-04-02T13:50:48.316Z,30.10
2023-04-02T13:53:23.703Z,30.46
2023-04-02T13:55:51.721Z,30.57
2023-04-02T13:58:19.646Z,31.04
2023-04-02T14:00:49.026Z,31.31
2023-04-02T14:03:24.282Z,31.91
2023-04-02T14:06:09.965Z,32.22
2023-04-02T14:09:01.804Z,32.64
2023-04-02T14:11:29.171Z,32.68
2023-04-02T14:14:08.231Z,32.98
2023-04-02T14:16:46.598Z,33.25
2023-04-02T14:19:18.044Z,33.34
2023-04-02T14:21:54.582Z,33.44
2023-04-02T14:24:30.411Z,33.61
2023-04-02T14:27:00.473Z,33.87
2023-04-02T14:30:04.593Z,33.96
2023-04-02T14:32:47.147Z,34.00
2023-04-02T14:35:25.022Z,34.12
2023-04-02T14:38:14.111Z,34.40
2023-04-02T14:40:52.071Z,34.35
2023-04-02T14:43:27.978Z,34.23
2023-04-02T14:46:02.876Z,34.17
2023-04-02T14:48:43.813Z,33.75
2023-04-02T14:51:18.010Z,34.19
2023-04-02T14:53:51.648Z,34.35
2023-04-02T14:56:20.960Z,34.18
2023-04-02T14:58:51.453Z,34.46
2023-04-02T15:01:31.716Z,34.51
2023-04-02T15:04:27.163Z,34.59
2023-04-02T15:06:57.267Z,34.34
2023-04-02T15:09:46.989Z,34.31
2023-04-02T15:12:19.998Z,34.25
2023-04-02T15:14:55.006Z,34.15
2023-04-02T15:17:22.225Z,34.13
2023-04-02T15:19:49.176Z,34.38
2023-04-02T15:22:26.350Z,34.28
2023-04-02T15:24:59.590Z,34.29
2023-04-02T15:28:02.372Z,34.37
2023-04-02T15:30:35.129Z,34.69
2023-04-02T15:33:27.822Z,34.97
2023-04-02T15:36:29.653Z,35.06
2023-04-02T15:39:15.383Z,35.51
2023-04-02T15:41:48.074Z,35.86
2023-04-02T15:44:16.033Z,36.26
2023-04-02T15:46:56.120Z,36.75
2023-04-02T15:49:26.345Z,37.27
2023-04-02T15:51:59.593Z,38.24
2023-04-02T15:54:44.714Z,39.44
2023-04-02T15:57:30.024Z,40.67
2023-04-02T16:00:04.270Z,41.60
2023-04-02T16:03:10.946Z,42.74
2023-04-02T16:06:05.358Z,43.48
2023-04-02T16:08:58.605Z,44.10
2023-04-02T16:11:26.229Z,44.58
2023-04-02T16:14:17.076Z,44.67
2023-04-02T16:16:44.311Z,45.00
2023-04-02T16:19:32.148Z,45.08
2023-04-02T16:22:15.749Z,45.50
2023-04-02T16:24:43.298Z,45.63
2023-04-02T16:27:15.104Z,46.04
2023-04-02T16:29:55.854Z,46.26
2023-04-02T16:32:49.154Z,46.68
2023-04-02T16:35:43.186Z,46.89
2023-04-02T16:38:21.624Z,47.06
2023-04-02T16:41:04.726Z,47.38
2023-04-02T16:43:47.357Z,47.51
2023-04-02T16:46:49.587Z,47.74
2023-04-02T16:49:36.307Z,47.97
2023-04-02T16:52:25.330Z,48.09
2023-04-02T16:55:23.372Z,48.43
2023-04-02T16:58:00.010Z,48.68
2023-04-02T17:00:48.789Z,48.67
2023-04-02T17:03:36.790Z,48.89
2023-04-02T17:06:09.638Z,49.03
2023-04-02T17:08:43.166Z,49.32
2023-04-02T17:11:25.085Z,49.42
2023-04-02T17:14:20.463Z,49.56
2023-04-02T17:16:50.369Z,49.98
2023-04-02T17:19:17.541Z,49.98
2023-04-02T17:21:49.836Z,50.10
2023-04-02T17:24:21.769Z,50.17
2023-04-02T17:29:07.090Z,50.37
2023-04-02T17:31:34.701Z,50.43
2023-04-02T17:34:16.953Z,50.51
2023-04-02T17:37:08.366Z,50.54
2023-04-02T17:39:42.577Z,50.52
2023-04-02T17:49:00.363Z,50.62
2023-04-02T17:51:41.811Z,50.63
2023-04-02T17:54:21.630Z,50.19
2023-04-02T17:57:15.810Z,49.83
2023-04-02T17:59:51.836Z,49.77
2023-04-02T18:02:29.967Z,49.96
2023-04-02T18:05:19.924Z,50.11
2023-04-02T18:08:06.461Z,50.00
2023-04-02T18:10:52.310Z,50.22
2023-04-02T18:13:37.390Z,50.45
2023-04-02T18:16:07.283Z,50.56
2023-04-02T18:18:38.280Z,50.76
2023-04-02T18:21:23.572Z,50.91
2023-04-02T18:24:15.200Z,51.10
2023-04-02T18:26:51.301Z,51.40
2023-04-02T18:29:48.654Z,51.62
2023-04-02T18:32:24.530Z,51.87
2023-04-02T18:35:21.874Z,52.06
2023-04-02T18:38:15.125Z,52.29
2023-04-02T18:41:01.546Z,52.36
2023-04-02T18:43:46.457Z,52.58
2023-04-02T18:46:25.352Z,52.78
2023-04-02T18:48:56.379Z,52.88
2023-04-02T18:51:25.536Z,52.79
2023-04-02T18:54:09.205Z,52.82
2023-04-02T18:56:39.334Z,52.84
2023-04-02T18:59:12.103Z,53.02
2023-04-02T19:01:40.508Z,53.15
2023-04-02T19:04:09.392Z,53.13
2023-04-02T19:06:42.245Z,53.16
2023-04-02T19:09:14.626Z,53.21
2023-04-02T19:11:41.077Z,53.29
2023-04-02T19:14:11.706Z,53.33
2023-04-02T19:16:37.902Z,53.37
2023-04-02T19:19:26.230Z,53.40
2023-04-02T19:22:40.669Z,53.59
2023-04-02T19:25:18.190Z,53.71
2023-04-02T19:28:01.380Z,53.79
2023-04-02T19:30:27.803Z,53.77
2023-04-02T19:33:12.611Z,53.86
2023-04-02T19:35:47.271Z,53.88
2023-04-02T19:38:30.505Z,54.02
2023-04-02T19:41:23.108Z,54.07
2023-04-02T19:43:49.796Z,54.17
2023-04-02T19:46:16.319Z,54.25
2023-04-02T19:48:48.901Z,54.29
2023-04-02T19:51:15.564Z,54.28
2023-04-02T19:53:41.887Z,54.30
2023-04-02T19:56:08.473Z,54.49
2023-04-02T19:58:35.159Z,54.44
2023-04-02T20:01:01.853Z,54.60
2023-04-02T20:03:28.249Z,54.69
2023-04-02T20:05:58.859Z,54.91
2023-04-02T20:08:27.425Z,54.91
2023-04-02T20:10:53.943Z,55.00
2023-04-02T20:13:25.500Z,55.16
2023-04-02T20:15:58.352Z,55.43
2023-04-02T20:18:25.809Z,55.49
2023-04-02T20:20:51.999Z,55.66
2023-04-02T20:23:18.469Z,55.68
2023-04-02T20:25:46.248Z,55.85
2023-04-02T20:28:15.805Z,55.85
2023-04-02T20:30:42.937Z,55.95
2023-04-02T20:33:09.401Z,56.10
2023-04-02T20:35:37.165Z,56.08
2023-04-02T20:38:06.002Z,56.20
2023-04-02T20:40:32.627Z,56.36
2023-04-02T20:43:01.503Z,56.38
2023-04-02T20:45:28.675Z,56.47
2023-04-02T20:47:55.097Z,56.64
2023-04-02T20:50:21.716Z,56.58
2023-04-02T20:52:49.934Z,56.70
2023-04-02T20:55:16.210Z,56.83
2023-04-02T20:57:45.844Z,57.15
2023-04-02T21:00:12.989Z,57.19
2023-04-02T21:02:45.197Z,57.46
2023-04-02T21:05:12.076Z,57.51
2023-04-02T21:07:38.431Z,57.58
2023-04-02T21:10:04.944Z,57.69
2023-04-02T21:12:33.629Z,57.86
2023-04-02T21:15:02.307Z,57.87
2023-04-02T21:17:29.330Z,58.13
2023-04-02T21:19:55.679Z,58.44
2023-04-02T21:22:22.032Z,58.73
2023-04-02T21:24:48.527Z,58.82
2023-04-02T21:27:15.608Z,59.53
2023-04-02T21:29:42.118Z,59.62
2023-04-02T21:32:18.486Z,59.81
2023-04-02T21:34:47.482Z,60.27
2023-04-02T21:37:13.643Z,60.72
2023-04-02T21:39:39.872Z,61.38
2023-04-02T21:42:06.156Z,62.11
2023-04-02T21:44:32.759Z,62.66
2023-04-02T21:46:59.050Z,63.11
2023-04-02T21:49:26.608Z,64.01
2023-04-02T21:51:52.918Z,64.85
2023-04-02T21:54:20.545Z,65.42
2023-04-02T21:56:47.761Z,65.94
2023-04-02T21:59:15.217Z,67.08
2023-04-02T22:01:43.905Z,67.65
2023-04-02T22:04:15.185Z,68.21
2023-04-02T22:06:41.657Z,69.10
2023-04-02T22:09:10.289Z,70.00
2023-04-02T22:11:43.895Z,70.58
2023-04-02T22:14:10.472Z,72.08
2023-04-02T22:16:36.832Z,72.28
2023-04-02T22:19:06.058Z,72.68
2023-04-02T22:21:32.625Z,73.40
2023-04-02T22:24:10.783Z,73.68
2023-04-02T22:26:37.584Z,74.26
2023-04-02T22:29:04.205Z,75.00
2023-04-02T22:31:32.617Z,75.07
2023-04-02T22:34:00.300Z,75.05
2023-04-02T22:36:26.889Z,75.14
2023-04-02T22:38:53.928Z,75.18
2023-04-02T22:41:25.405Z,75.38
2023-04-02T22:43:56.258Z,75.27
2023-04-02T22:46:22.719Z,75.49
2023-04-02T22:48:49.061Z,75.70
2023-04-02T22:51:18.517Z,75.82
2023-04-02T22:53:47.465Z,75.89
2023-04-02T22:56:18.253Z,75.92
2023-04-02T22:58:44.926Z,75.80
2023-04-02T23:01:11.528Z,75.89
2023-04-02T23:03:38.815Z,75.83
2023-04-02T23:06:07.773Z,75.75
2023-04-02T23:08:35.074Z,75.67
2023-04-02T23:11:10.057Z,75.74
2023-04-02T23:13:38.675Z,75.49
2023-04-02T23:16:06.539Z,75.52
2023-04-02T23:18:37.135Z,75.84
2023-04-02T23:21:03.942Z,75.75
2023-04-02T23:23:30.782Z,75.87
2023-04-02T23:26:08.579Z,75.92
2023-04-02T23:28:36.057Z,75.88
2023-04-02T23:31:04.354Z,75.84
2023-04-02T23:33:30.912Z,75.82
2023-04-02T23:35:57.746Z,76.04
2023-04-02T23:38:25.136Z,76.06
2023-04-02T23:40:52.573Z,76.13
2023-04-02T23:43:18.718Z,76.08
2023-04-02T23:45:48.573Z,76.08
2023-04-02T23:48:15.171Z,75.93
2023-04-02T23:50:43.633Z,75.58
2023-04-02T23:53:11.415Z,75.08
2023-04-02T23:55:39.065Z,74.11
2023-04-02T23:58:05.570Z,73.28
